sensor_id;sensor_type;location;lat;lon;timestamp;P1;durP1;ratioP1;P2;durP2;ratioP2
57339;SDS011;43174;50.930;18.170;2023-07-16T00:03:59;4.10;;;3.70;;
57339;SDS011;43174;50.930;18.170;2023-07-16T00:13:41;3.40;;;3.10;;
57339;SDS011;43174;50.930;18.170;2023-07-16T00:23:27;4.50;;;4.20;;
57339;SDS011;43174;50.930;18.170;2023-07-16T00:33:09;4.20;;;4.00;;
57339;SDS011;43174;50.930;18.170;2023-07-16T00:42:51;4.50;;;4.10;;
57339;SDS011;43174;50.930;18.170;2023-07-16T00:52:32;7.50;;;4.30;;
57339;SDS011;43174;50.930;18.170;2023-07-16T01:02:14;12.40;;;4.70;;
57339;SDS011;43174;50.930;18.170;2023-07-16T01:09:31;6.20;;;5.60;;
57339;SDS011;43174;50.930;18.170;2023-07-16T01:19:13;5.20;;;4.80;;
57339;SDS011;43174;50.930;18.170;2023-07-16T01:38:38;4.00;;;3.70;;
57339;SDS011;43174;50.930;18.170;2023-07-16T01:48:36;7.50;;;6.40;;
57339;SDS011;43174;50.930;18.170;2023-07-16T01:58:18;5.50;;;5.00;;
57339;SDS011;43174;50.930;18.170;2023-07-16T02:08:00;6.90;;;4.60;;
57339;SDS011;43174;50.930;18.170;2023-07-16T02:17:43;6.10;;;5.60;;
57339;SDS011;43174;50.930;18.170;2023-07-16T02:27:26;5.20;;;4.90;;
57339;SDS011;43174;50.930;18.170;2023-07-16T02:37:08;6.80;;;4.70;;
57339;SDS011;43174;50.930;18.170;2023-07-16T02:46:50;15.60;;;5.20;;
57339;SDS011;43174;50.930;18.170;2023-07-16T02:56:33;4.90;;;4.50;;
57339;SDS011;43174;50.930;18.170;2023-07-16T03:06:15;5.90;;;5.50;;
57339;SDS011;43174;50.930;18.170;2023-07-16T03:15:57;6.70;;;6.20;;
57339;SDS011;43174;50.930;18.170;2023-07-16T03:25:38;4.60;;;4.30;;
57339;SDS011;43174;50.930;18.170;2023-07-16T03:35:20;6.80;;;6.50;;
57339;SDS011;43174;50.930;18.170;2023-07-16T03:45:02;21.50;;;8.10;;
57339;SDS011;43174;50.930;18.170;2023-07-16T03:54:44;5.80;;;5.50;;
57339;SDS011;43174;50.930;18.170;2023-07-16T04:04:26;6.00;;;5.60;;
57339;SDS011;43174;50.930;18.170;2023-07-16T04:11:43;8.50;;;7.20;;
57339;SDS011;43174;50.930;18.170;2023-07-16T04:21:26;6.20;;;5.90;;
57339;SDS011;43174;50.930;18.170;2023-07-16T04:31:09;6.20;;;5.90;;
57339;SDS011;43174;50.930;18.170;2023-07-16T04:40:51;8.50;;;7.70;;
57339;SDS011;43174;50.930;18.170;2023-07-16T04:50:35;8.30;;;7.70;;
57339;SDS011;43174;50.930;18.170;2023-07-16T05:00:18;6.50;;;6.10;;
57339;SDS011;43174;50.930;18.170;2023-07-16T05:10:01;5.90;;;5.60;;
57339;SDS011;43174;50.930;18.170;2023-07-16T05:19:42;7.30;;;7.00;;
57339;SDS011;43174;50.930;18.170;2023-07-16T05:29:24;7.30;;;7.00;;
57339;SDS011;43174;50.930;18.170;2023-07-16T05:39:06;9.30;;;7.40;;
57339;SDS011;43174;50.930;18.170;2023-07-16T05:48:50;8.40;;;7.80;;
57339;SDS011;43174;50.930;18.170;2023-07-16T05:58:32;7.30;;;7.00;;
57339;SDS011;43174;50.930;18.170;2023-07-16T06:08:14;6.70;;;6.30;;
57339;SDS011;43174;50.930;18.170;2023-07-16T06:17:57;4.70;;;4.50;;
57339;SDS011;43174;50.930;18.170;2023-07-16T06:27:39;9.50;;;7.10;;
57339;SDS011;43174;50.930;18.170;2023-07-16T06:37:21;4.00;;;2.90;;
57339;SDS011;43174;50.930;18.170;2023-07-16T06:47:06;3.60;;;3.40;;
57339;SDS011;43174;50.930;18.170;2023-07-16T06:56:47;4.20;;;2.10;;
57339;SDS011;43174;50.930;18.170;2023-07-16T07:06:29;0.80;;;0.80;;
57339;SDS011;43174;50.930;18.170;2023-07-16T07:13:45;4.70;;;1.40;;
57339;SDS011;43174;50.930;18.170;2023-07-16T07:23:27;1.10;;;1.00;;
57339;SDS011;43174;50.930;18.170;2023-07-16T07:33:09;0.80;;;0.80;;
57339;SDS011;43174;50.930;18.170;2023-07-16T07:42:51;1.90;;;1.80;;
57339;SDS011;43174;50.930;18.170;2023-07-16T07:52:33;1.60;;;1.00;;
57339;SDS011;43174;50.930;18.170;2023-07-16T08:02:20;6.60;;;1.50;;
57339;SDS011;43174;50.930;18.170;2023-07-16T08:12:04;1.20;;;1.10;;
57339;SDS011;43174;50.930;18.170;2023-07-16T08:21:49;0.40;;;0.40;;
57339;SDS011;43174;50.930;18.170;2023-07-16T08:31:31;1.80;;;1.50;;
57339;SDS011;43174;50.930;18.170;2023-07-16T08:41:13;3.40;;;3.10;;
57339;SDS011;43174;50.930;18.170;2023-07-16T08:50:57;0.60;;;0.60;;
57339;SDS011;43174;50.930;18.170;2023-07-16T09:00:43;2.00;;;1.40;;
57339;SDS011;43174;50.930;18.170;2023-07-16T09:10:28;0.90;;;0.90;;
57339;SDS011;43174;50.930;18.170;2023-07-16T09:20:10;2.00;;;1.50;;
57339;SDS011;43174;50.930;18.170;2023-07-16T09:29:54;1.10;;;0.80;;
57339;SDS011;43174;50.930;18.170;2023-07-16T09:39:36;0.50;;;0.50;;
57339;SDS011;43174;50.930;18.170;2023-07-16T09:49:19;0.50;;;0.50;;
57339;SDS011;43174;50.930;18.170;2023-07-16T09:59:00;6.60;;;1.10;;
57339;SDS011;43174;50.930;18.170;2023-07-16T10:08:48;2.20;;;1.00;;
57339;SDS011;43174;50.930;18.170;2023-07-16T10:16:05;1.20;;;0.70;;
57339;SDS011;43174;50.930;18.170;2023-07-16T10:26:01;0.40;;;0.40;;
57339;SDS011;43174;50.930;18.170;2023-07-16T10:35:47;1.00;;;1.00;;
57339;SDS011;43174;50.930;18.170;2023-07-16T10:45:28;1.10;;;0.70;;
57339;SDS011;43174;50.930;18.170;2023-07-16T10:55:12;1.00;;;0.70;;
57339;SDS011;43174;50.930;18.170;2023-07-16T11:04:54;0.50;;;0.50;;
57339;SDS011;43174;50.930;18.170;2023-07-16T11:14:37;0.50;;;0.50;;
57339;SDS011;43174;50.930;18.170;2023-07-16T11:24:19;0.80;;;0.60;;
57339;SDS011;43174;50.930;18.170;2023-07-16T11:34:02;0.50;;;0.50;;
57339;SDS011;43174;50.930;18.170;2023-07-16T11:43:45;0.10;;;0.10;;
57339;SDS011;43174;50.930;18.170;2023-07-16T11:53:27;2.00;;;0.60;;
57339;SDS011;43174;50.930;18.170;2023-07-16T12:03:09;0.40;;;0.40;;
57339;SDS011;43174;50.930;18.170;2023-07-16T12:12:51;0.80;;;0.80;;
57339;SDS011;43174;50.930;18.170;2023-07-16T12:22:33;11.00;;;1.00;;
57339;SDS011;43174;50.930;18.170;2023-07-16T12:32:15;0.40;;;0.40;;
57339;SDS011;43174;50.930;18.170;2023-07-16T12:41:58;0.50;;;0.50;;
57339;SDS011;43174;50.930;18.170;2023-07-16T12:51:39;1.00;;;1.00;;
57339;SDS011;43174;50.930;18.170;2023-07-16T13:01:22;0.80;;;0.80;;
57339;SDS011;43174;50.930;18.170;2023-07-16T13:11:04;0.90;;;0.80;;
57339;SDS011;43174;50.930;18.170;2023-07-16T13:18:23;1.00;;;0.90;;
57339;SDS011;43174;50.930;18.170;2023-07-16T13:28:05;3.40;;;0.90;;
57339;SDS011;43174;50.930;18.170;2023-07-16T13:37:48;1.40;;;0.50;;
57339;SDS011;43174;50.930;18.170;2023-07-16T13:47:30;1.40;;;0.70;;
57339;SDS011;43174;50.930;18.170;2023-07-16T13:52:21;1.50;;;0.80;;
57339;SDS011;43174;50.930;18.170;2023-07-16T14:02:04;0.80;;;0.80;;
57339;SDS011;43174;50.930;18.170;2023-07-16T14:11:47;1.10;;;1.10;;
57339;SDS011;43174;50.930;18.170;2023-07-16T14:21:31;1.20;;;0.80;;
57339;SDS011;43174;50.930;18.170;2023-07-16T14:31:13;1.20;;;1.10;;
57339;SDS011;43174;50.930;18.170;2023-07-16T14:33:39;1.90;;;1.30;;
57339;SDS011;43174;50.930;18.170;2023-07-16T14:43:22;2.00;;;0.60;;
57339;SDS011;43174;50.930;18.170;2023-07-16T14:53:04;1.00;;;0.90;;
57339;SDS011;43174;50.930;18.170;2023-07-16T15:02:46;0.60;;;0.60;;
57339;SDS011;43174;50.930;18.170;2023-07-16T15:12:29;0.60;;;0.60;;
57339;SDS011;43174;50.930;18.170;2023-07-16T15:22:13;1.30;;;1.30;;
57339;SDS011;43174;50.930;18.170;2023-07-16T15:31:58;1.50;;;1.40;;
57339;SDS011;43174;50.930;18.170;2023-07-16T15:41:41;0.90;;;0.70;;
57339;SDS011;43174;50.930;18.170;2023-07-16T15:51:23;0.90;;;0.90;;
57339;SDS011;43174;50.930;18.170;2023-07-16T16:01:06;0.70;;;0.70;;
57339;SDS011;43174;50.930;18.170;2023-07-16T16:10:49;0.70;;;0.70;;
57339;SDS011;43174;50.930;18.170;2023-07-16T16:20:34;0.50;;;0.50;;
57339;SDS011;43174;50.930;18.170;2023-07-16T16:22:59;1.10;;;1.00;;
57339;SDS011;43174;50.930;18.170;2023-07-16T16:32:41;1.20;;;1.10;;
57339;SDS011;43174;50.930;18.170;2023-07-16T16:42:24;0.70;;;0.70;;
57339;SDS011;43174;50.930;18.170;2023-07-16T16:52:08;0.80;;;0.80;;
57339;SDS011;43174;50.930;18.170;2023-07-16T17:01:49;10.50;;;2.90;;
57339;SDS011;43174;50.930;18.170;2023-07-16T17:11:32;0.90;;;0.90;;
57339;SDS011;43174;50.930;18.170;2023-07-16T17:21:14;3.10;;;1.50;;
57339;SDS011;43174;50.930;18.170;2023-07-16T17:30:58;1.00;;;1.00;;
57339;SDS011;43174;50.930;18.170;2023-07-16T17:40:42;1.10;;;1.00;;
57339;SDS011;43174;50.930;18.170;2023-07-16T17:50:25;1.60;;;1.60;;
57339;SDS011;43174;50.930;18.170;2023-07-16T18:00:07;4.30;;;4.10;;
57339;SDS011;43174;50.930;18.170;2023-07-16T18:09:50;0.50;;;0.50;;
57339;SDS011;43174;50.930;18.170;2023-07-16T18:19:36;0.70;;;0.70;;
57339;SDS011;43174;50.930;18.170;2023-07-16T18:29:21;1.40;;;1.30;;
57339;SDS011;43174;50.930;18.170;2023-07-16T18:39:03;1.90;;;1.60;;
57339;SDS011;43174;50.930;18.170;2023-07-16T18:48:47;1.20;;;1.10;;
57339;SDS011;43174;50.930;18.170;2023-07-16T18:58:30;26.00;;;3.80;;
57339;SDS011;43174;50.930;18.170;2023-07-16T19:08:13;2.50;;;2.30;;
57339;SDS011;43174;50.930;18.170;2023-07-16T19:17:56;1.30;;;1.20;;
57339;SDS011;43174;50.930;18.170;2023-07-16T19:22:47;3.80;;;2.30;;
57339;SDS011;43174;50.930;18.170;2023-07-16T19:32:29;0.90;;;0.90;;
57339;SDS011;43174;50.930;18.170;2023-07-16T19:42:11;8.40;;;2.50;;
57339;SDS011;43174;50.930;18.170;2023-07-16T19:51:55;1.70;;;1.20;;
57339;SDS011;43174;50.930;18.170;2023-07-16T20:01:37;1.50;;;1.40;;
57339;SDS011;43174;50.930;18.170;2023-07-16T20:11:19;1.90;;;1.80;;
57339;SDS011;43174;50.930;18.170;2023-07-16T20:21:02;2.60;;;1.40;;
57339;SDS011;43174;50.930;18.170;2023-07-16T20:30:46;3.20;;;3.10;;
57339;SDS011;43174;50.930;18.170;2023-07-16T20:40:30;2.80;;;2.60;;
57339;SDS011;43174;50.930;18.170;2023-07-16T20:50:12;3.20;;;3.00;;
57339;SDS011;43174;50.930;18.170;2023-07-16T20:59:56;4.00;;;3.80;;
57339;SDS011;43174;50.930;18.170;2023-07-16T21:09:39;2.50;;;2.30;;
57339;SDS011;43174;50.930;18.170;2023-07-16T21:19:20;3.50;;;3.30;;
57339;SDS011;43174;50.930;18.170;2023-07-16T21:29:03;3.70;;;3.50;;
57339;SDS011;43174;50.930;18.170;2023-07-16T21:38:46;2.80;;;2.70;;
57339;SDS011;43174;50.930;18.170;2023-07-16T21:48:28;3.10;;;2.90;;
57339;SDS011;43174;50.930;18.170;2023-07-16T21:58:10;3.30;;;3.10;;
57339;SDS011;43174;50.930;18.170;2023-07-16T22:07:53;1.40;;;1.40;;
57339;SDS011;43174;50.930;18.170;2023-07-16T22:17:36;4.40;;;4.20;;
57339;SDS011;43174;50.930;18.170;2023-07-16T22:24:54;4.30;;;4.00;;
57339;SDS011;43174;50.930;18.170;2023-07-16T22:34:37;2.50;;;2.40;;
57339;SDS011;43174;50.930;18.170;2023-07-16T22:44:21;3.20;;;3.00;;
57339;SDS011;43174;50.930;18.170;2023-07-16T22:54:05;6.00;;;5.50;;
57339;SDS011;43174;50.930;18.170;2023-07-16T23:03:47;5.50;;;2.80;;
57339;SDS011;43174;50.930;18.170;2023-07-16T23:13:29;13.30;;;3.90;;
57339;SDS011;43174;50.930;18.170;2023-07-16T23:23:11;2.80;;;2.70;;
57339;SDS011;43174;50.930;18.170;2023-07-16T23:32:57;4.70;;;4.50;;
57339;SDS011;43174;50.930;18.170;2023-07-16T23:42:40;4.00;;;3.80;;
57339;SDS011;43174;50.930;18.170;2023-07-16T23:52:21;3.50;;;3.30;;
